Time;durP1;ratioP1;P1;durP2;ratioP2;P2;SDS_P1;SDS_P2;PMS_P1;PMS_P2;Temp;Humidity;BMP_temperature;BMP_pressure;BME280_temperature;BME280_humidity;BME280_pressure;Samples;Min_cycle;Max_cycle;Signal;HPM_P1;HPM_P2
2022/12/11 00:00:20;;;;;;;;;;;;;;;;;;5094556;28;1317;-41
2022/12/11 00:02:48;;;;;;;;;;;;;;;;;;5093255;28;1955;-40
2022/12/11 00:05:15;;;;;;;;;;;;;;;;;;5092913;28;1726;-40
2022/12/11 00:07:42;;;;;;;;;;;;;;;;;;5093259;28;1374;-41
2022/12/11 00:10:09;;;;;;;;;;;;;;;;;;5093006;28;1818;-40
2022/12/11 00:12:36;;;;;;;;;;;;;;;;;;5074854;28;1250;-40
2022/12/11 00:15:03;;;;;;;;;;;;;;;;;;5093033;28;1496;-41
2022/12/11 00:17:31;;;;;;;;;;;;;;;;;;5093047;28;2199;-39
2022/12/11 00:19:58;;;;;;;;;;;;;;;;;;5097631;28;1828;-40
2022/12/11 00:22:25;;;;;;;;;;;;;;;;;;5095530;28;1869;-40
2022/12/11 00:24:52;;;;;;;;;;;;;;;;;;5095147;28;1923;-40
2022/12/11 00:27:19;;;;;;;;;;;;;;;;;;5113049;28;2099;-40
2022/12/11 00:29:46;;;;;;;;;;;;;;;;;;5113116;28;2046;-40
2022/12/11 00:32:13;;;;;;;;;;;;;;;;;;5112918;28;1953;-40
2022/12/11 00:34:40;;;;;;;;;;;;;;;;;;5112892;28;1689;-40
2022/12/11 00:37:07;;;;;;;;;;;;;;;;;;5112785;28;1829;-40
2022/12/11 00:39:35;;;;;;;;;;;;;;;;;;5112715;28;1919;-41
2022/12/11 00:42:02;;;;;;;;;;;;;;;;;;5112837;28;1859;-40
2022/12/11 00:44:29;;;;;;;;;;;;;;;;;;5093716;28;1718;-40
2022/12/11 00:46:56;;;;;;;;;;;;;;;;;;5112695;28;1825;-40
2022/12/11 00:49:23;;;;;;;;;;;;;;;;;;5112491;28;1706;-41
2022/12/11 00:51:50;;;;;;;;;;;;;;;;;;5112829;28;1482;-41
2022/12/11 00:54:17;;;;;;;;;;;;;;;;;;5112500;28;1975;-40
2022/12/11 00:56:45;;;;;;;;;;;;;;;;;;5112608;28;2061;-40
2022/12/11 00:59:12;;;;;;;;;;;;;;;;;;5112353;28;1991;-39
2022/12/11 01:01:40;;;;;;;;;;;;;;;;;;5094081;28;2008;-40
2022/12/11 01:04:07;;;;;;;;;;;;;;;;;;5112352;28;2147;-41
2022/12/11 01:06:34;;;;;;;;;;;;;;;;;;5096199;28;2191;-40
2022/12/11 01:11:46;;;;;;;;;;;;;;;;;;5092424;28;1991;-40
2022/12/11 01:14:13;;;;;;;;;;;;;;;;;;5091888;28;1588;-40
2022/12/11 01:16:42;;;;;;;;;;;;;;;;;;5091937;28;1623;-40
2022/12/11 01:19:09;;;;;;;;;;;;;;;;;;5091820;28;1918;-40
2022/12/11 01:21:36;;;;;;;;;;;;;;;;;;5109683;28;2290;-39
2022/12/11 01:24:04;;;;;;;;;;;;;;;;;;5111990;28;1498;-40
2022/12/11 01:26:31;;;;;;;;;;;;;;;;;;5111977;28;1808;-41
2022/12/11 01:28:58;;;;;;;;;;;;;;;;;;5112152;28;1815;-40
2022/12/11 01:31:25;;;;;;;;;;;;;;;;;;5111916;28;1335;-40
2022/12/11 01:33:55;;;;;;;;;;;;;;;;;;5111950;28;1941;-39
2022/12/11 01:36:22;;;;;;;;;;;;;;;;;;5111925;28;1762;-40
2022/12/11 01:38:49;;;;;;;;;;;;;;;;;;5111787;28;1977;-39
2022/12/11 01:41:17;;;;;;;;;;;;;;;;;;5109233;28;1877;-41
2022/12/11 01:44:05;;;;;;;;;;;;;;;;;;5091644;28;2113;-40
2022/12/11 01:46:33;;;;;;;;;;;;;;;;;;5091933;28;1406;-41
2022/12/11 01:49:01;;;;;;;;;;;;;;;;;;5091771;28;1825;-40
2022/12/11 01:51:29;;;;;;;;;;;;;;;;;;5090994;28;1710;-41
2022/12/11 01:54:01;;;;;;;;;;;;;;;;;;5091471;28;2110;-40
2022/12/11 01:56:30;;;;;;;;;;;;;;;;;;5091289;28;1831;-40
2022/12/11 01:58:59;;;;;;;;;;;;;;;;;;5091198;28;1910;-40
2022/12/11 02:01:44;;;;;;;;;;;;;;;;;;5091231;28;2002;-40
2022/12/11 02:04:13;;;;;;;;;;;;;;;;;;5094616;28;1551;-39
2022/12/11 02:06:41;;;;;;;;;;;;;;;;;;5111500;28;2287;-40
2022/12/11 02:09:16;;;;;;;;;;;;;;;;;;5111317;28;2114;-41
2022/12/11 02:11:59;;;;;;;;;;;;;;;;;;5111302;28;1938;-39
2022/12/11 02:14:45;;;;;;;;;;;;;;;;;;5093258;28;1971;-40
2022/12/11 02:17:30;;;;;;;;;;;;;;;;;;5091300;28;1324;-40
2022/12/11 02:20:16;;;;;;;;;;;;;;;;;;5095279;28;1971;-39
2022/12/11 02:22:58;;;;;;;;;;;;;;;;;;5111149;28;1692;-40
2022/12/11 02:25:45;;;;;;;;;;;;;;;;;;5111241;28;1643;-40
2022/12/11 02:28:12;;;;;;;;;;;;;;;;;;5111180;28;1504;-40
2022/12/11 02:30:40;;;;;;;;;;;;;;;;;;5111267;28;1994;-40
2022/12/11 02:33:08;;;;;;;;;;;;;;;;;;5107985;28;1947;-39
2022/12/11 02:35:42;;;;;;;;;;;;;;;;;;5109571;28;1958;-40
2022/12/11 02:38:14;;;;;;;;;;;;;;;;;;5106525;28;2094;-40
2022/12/11 02:40:42;;;;;;;;;;;;;;;;;;5102343;28;1917;-41
2022/12/11 02:43:11;;;;;;;;;;;;;;;;;;5092927;28;1468;-40
2022/12/11 02:45:40;;;;;;;;;;;;;;;;;;5095329;28;1782;-41
2022/12/11 02:48:08;;;;;;;;;;;;;;;;;;5111064;28;1673;-40
2022/12/11 02:50:38;;;;;;;;;;;;;;;;;;5111271;28;1957;-40
2022/12/11 02:53:05;;;;;;;;;;;;;;;;;;5111354;28;1613;-40
2022/12/11 02:55:35;;;;;;;;;;;;;;;;;;5111179;28;1685;-40
2022/12/11 02:58:20;;;;;;;;;;;;;;;;;;5111091;28;2179;-40
2022/12/11 03:00:48;;;;;;;;;;;;;;;;;;5111030;28;1907;-40
2022/12/11 03:03:15;;;;;;;;;;;;;;;;;;5111060;28;1322;-41
2022/12/11 03:05:42;;;;;;;;;;;;;;;;;;5111014;28;2150;-40
2022/12/11 03:08:10;;;;;;;;;;;;;;;;;;5112625;28;2154;-40
2022/12/11 03:10:37;;;;;;;;;;;;;;;;;;5114577;28;2126;-47
2022/12/11 03:13:04;;;;;;;;;;;;;;;;;;5115102;28;1983;-40
2022/12/11 03:15:51;;;;;;;;;;;;;;;;;;5114569;28;1505;-40
2022/12/11 03:18:22;;;;;;;;;;;;;;;;;;5096280;28;1955;-40
2022/12/11 03:20:54;;;;;;;;;;;;;;;;;;5102783;28;1909;-40
2022/12/11 03:23:31;;;;;;;;;;;;;;;;;;5094137;28;1868;-42
2022/12/11 03:26:01;;;;;;;;;;;;;;;;;;5093788;28;1586;-40
2022/12/11 03:28:30;;;;;;;;;;;;;;;;;;5093973;28;1954;-40
2022/12/11 03:31:02;;;;;;;;;;;;;;;;;;5093875;28;2016;-40
2022/12/11 03:33:34;;;;;;;;;;;;;;;;;;5093837;28;1479;-40
2022/12/11 03:36:06;;;;;;;;;;;;;;;;;;5093835;28;1865;-40
2022/12/11 03:38:36;;;;;;;;;;;;;;;;;;5093664;28;1902;-40
2022/12/11 03:41:04;;;;;;;;;;;;;;;;;;5093764;28;1853;-39
2022/12/11 03:43:31;;;;;;;;;;;;;;;;;;5093948;28;2100;-40
2022/12/11 03:45:59;;;;;;;;;;;;;;;;;;5093440;28;1823;-40
2022/12/11 03:48:29;;;;;;;;;;;;;;;;;;5104877;28;1584;-40
2022/12/11 03:50:57;;;;;;;;;;;;;;;;;;5113807;28;1276;-39
2022/12/11 03:53:26;;;;;;;;;;;;;;;;;;5114014;28;1950;-40
2022/12/11 03:55:57;;;;;;;;;;;;;;;;;;5113846;28;1490;-40
2022/12/11 03:58:24;;;;;;;;;;;;;;;;;;5113650;28;2274;-39
2022/12/11 04:00:51;;;;;;;;;;;;;;;;;;5113450;28;1576;-39
2022/12/11 04:03:18;;;;;;;;;;;;;;;;;;5113724;28;1988;-40
2022/12/11 04:05:47;;;;;;;;;;;;;;;;;;5113420;28;2242;-40
2022/12/11 04:08:15;;;;;;;;;;;;;;;;;;5113678;28;2261;-41
2022/12/11 04:10:42;;;;;;;;;;;;;;;;;;5113630;28;1895;-40
2022/12/11 04:13:10;;;;;;;;;;;;;;;;;;5113514;28;2017;-40
2022/12/11 04:15:37;;;;;;;;;;;;;;;;;;5113583;28;1777;-40
2022/12/11 04:26:25;;;;;;;;;;;;;;;;;;5092415;28;2206;-40
2022/12/11 04:28:53;;;;;;;;;;;;;;;;;;5092836;28;1996;-40
2022/12/11 04:31:21;;;;;;;;;;;;;;;;;;5092587;28;1659;-39
2022/12/11 04:33:48;;;;;;;;;;;;;;;;;;5092807;28;1645;-40
2022/12/11 04:36:15;;;;;;;;;;;;;;;;;;5092133;28;2106;-40
2022/12/11 04:38:42;;;;;;;;;;;;;;;;;;5074859;28;1918;-40
2022/12/11 04:41:11;;;;;;;;;;;;;;;;;;5092809;28;2166;-40
2022/12/11 04:43:38;;;;;;;;;;;;;;;;;;5092669;28;2017;-40
2022/12/11 04:46:06;;;;;;;;;;;;;;;;;;5074232;28;2189;-40
2022/12/11 04:48:34;;;;;;;;;;;;;;;;;;5092200;28;2010;-40
2022/12/11 04:51:01;;;;;;;;;;;;;;;;;;5093145;28;1994;-40
2022/12/11 04:53:28;;;;;;;;;;;;;;;;;;5092189;28;1772;-41
2022/12/11 04:55:55;;;;;;;;;;;;;;;;;;5092346;28;2004;-40
2022/12/11 04:58:22;;;;;;;;;;;;;;;;;;5094248;28;1819;-39
2022/12/11 05:00:50;;;;;;;;;;;;;;;;;;5092810;28;2080;-40
2022/12/11 05:03:17;;;;;;;;;;;;;;;;;;5092064;28;1484;-40
2022/12/11 05:05:49;;;;;;;;;;;;;;;;;;5102893;28;2058;-40
2022/12/11 05:08:16;;;;;;;;;;;;;;;;;;5105290;28;1969;-40
2022/12/11 05:10:44;;;;;;;;;;;;;;;;;;5112423;28;1816;-40
2022/12/11 05:13:15;;;;;;;;;;;;;;;;;;5112461;28;1730;-40
2022/12/11 05:15:42;;;;;;;;;;;;;;;;;;5112286;28;1587;-40
2022/12/11 05:18:10;;;;;;;;;;;;;;;;;;5112242;28;1681;-39
2022/12/11 05:20:37;;;;;;;;;;;;;;;;;;5101889;28;1973;-41
2022/12/11 05:23:04;;;;;;;;;;;;;;;;;;5091771;28;1689;-40
2022/12/11 05:25:31;;;;;;;;;;;;;;;;;;5099493;28;1966;-40
2022/12/11 05:27:58;;;;;;;;;;;;;;;;;;5094806;28;1766;-41
2022/12/11 05:30:25;;;;;;;;;;;;;;;;;;5091578;28;1865;-40
2022/12/11 05:32:52;;;;;;;;;;;;;;;;;;5091755;28;1941;-41
2022/12/11 05:35:19;;;;;;;;;;;;;;;;;;5091461;28;1955;-41
2022/12/11 05:37:46;;;;;;;;;;;;;;;;;;5091718;28;1583;-40
2022/12/11 05:40:14;;;;;;;;;;;;;;;;;;5091607;28;1921;-40
2022/12/11 05:42:41;;;;;;;;;;;;;;;;;;5091539;28;2071;-39
2022/12/11 05:45:08;;;;;;;;;;;;;;;;;;5091455;28;2026;-41
2022/12/11 05:47:35;;;;;;;;;;;;;;;;;;5091417;28;1453;-41
2022/12/11 05:50:02;;;;;;;;;;;;;;;;;;5073382;28;1364;-39
2022/12/11 05:52:30;;;;;;;;;;;;;;;;;;5091426;28;2109;-39
2022/12/11 05:54:57;;;;;;;;;;;;;;;;;;5091124;28;2077;-40
2022/12/11 05:57:24;;;;;;;;;;;;;;;;;;5091101;28;2449;-40
2022/12/11 05:59:51;;;;;;;;;;;;;;;;;;5091287;28;2422;-41
2022/12/11 06:02:18;;;;;;;;;;;;;;;;;;5091480;28;1956;-39
2022/12/11 06:04:45;;;;;;;;;;;;;;;;;;5090938;28;1530;-40
2022/12/11 06:07:12;;;;;;;;;;;;;;;;;;5073281;28;1826;-40
2022/12/11 06:09:40;;;;;;;;;;;;;;;;;;5091079;28;1926;-40
2022/12/11 06:12:07;;;;;;;;;;;;;;;;;;5091252;28;1755;-40
2022/12/11 06:14:34;;;;;;;;;;;;;;;;;;5090990;28;1753;-44
2022/12/11 06:17:01;;;;;;;;;;;;;;;;;;5072926;28;1980;-41
2022/12/11 06:19:28;;;;;;;;;;;;;;;;;;5090966;28;1965;-41
2022/12/11 06:22:02;;;;;;;;;;;;;;;;;;5111490;28;1839;-40
2022/12/11 06:24:29;;;;;;;;;;;;;;;;;;5111213;28;1787;-40
2022/12/11 06:26:56;;;;;;;;;;;;;;;;;;5111309;28;2182;-40
2022/12/11 06:29:23;;;;;;;;;;;;;;;;;;5111362;28;1872;-40
2022/12/11 06:31:51;;;;;;;;;;;;;;;;;;5111753;28;1731;-39
2022/12/11 06:34:18;;;;;;;;;;;;;;;;;;5111441;28;2095;-40
2022/12/11 06:36:45;;;;;;;;;;;;;;;;;;5111145;28;2136;-40
2022/12/11 06:39:12;;;;;;;;;;;;;;;;;;5111176;28;1970;-39
2022/12/11 06:41:39;;;;;;;;;;;;;;;;;;5110958;28;1984;-41
2022/12/11 06:44:06;;;;;;;;;;;;;;;;;;5114619;28;1578;-41
2022/12/11 06:46:33;;;;;;;;;;;;;;;;;;5115001;28;1694;-40
2022/12/11 06:49:01;;;;;;;;;;;;;;;;;;5114905;28;1792;-40
2022/12/11 06:51:28;;;;;;;;;;;;;;;;;;5114771;28;1938;-40
2022/12/11 06:53:55;;;;;;;;;;;;;;;;;;5114923;28;1708;-40
2022/12/11 06:56:23;;;;;;;;;;;;;;;;;;5114886;28;2186;-42
2022/12/11 06:58:50;;;;;;;;;;;;;;;;;;5115049;28;1918;-41
2022/12/11 07:01:25;;;;;;;;;;;;;;;;;;5115276;28;2262;-41
2022/12/11 07:03:53;;;;;;;;;;;;;;;;;;5096596;28;2357;-40
2022/12/11 07:06:20;;;;;;;;;;;;;;;;;;5114990;28;1986;-41
2022/12/11 07:08:48;;;;;;;;;;;;;;;;;;5114523;28;1823;-40
2022/12/11 07:11:15;;;;;;;;;;;;;;;;;;5114748;28;2161;-40
2022/12/11 07:13:45;;;;;;;;;;;;;;;;;;5114777;28;1455;-39
2022/12/11 07:16:12;;;;;;;;;;;;;;;;;;5114563;28;1945;-40
2022/12/11 07:18:42;;;;;;;;;;;;;;;;;;5114428;28;1319;-40
2022/12/11 07:21:11;;;;;;;;;;;;;;;;;;5100053;28;2072;-40
2022/12/11 07:23:38;;;;;;;;;;;;;;;;;;5094281;28;2158;-40
2022/12/11 07:26:13;;;;;;;;;;;;;;;;;;5094101;28;1596;-39
2022/12/11 07:28:41;;;;;;;;;;;;;;;;;;5093910;28;2074;-40
2022/12/11 07:31:09;;;;;;;;;;;;;;;;;;5093796;28;1635;-40
2022/12/11 07:33:36;;;;;;;;;;;;;;;;;;5093524;28;1847;-40
2022/12/11 07:36:04;;;;;;;;;;;;;;;;;;5093820;28;1901;-40
2022/12/11 07:38:31;;;;;;;;;;;;;;;;;;5093856;28;1410;-41
2022/12/11 07:41:02;;;;;;;;;;;;;;;;;;5093291;28;2068;-40
2022/12/11 07:43:29;;;;;;;;;;;;;;;;;;5093625;28;1624;-40
2022/12/11 07:46:03;;;;;;;;;;;;;;;;;;5093480;28;2008;-40
2022/12/11 07:48:30;;;;;;;;;;;;;;;;;;5093640;28;1846;-41
2022/12/11 07:51:27;;;;;;;;;;;;;;;;;;5093552;28;1678;-41
2022/12/11 07:53:56;;;;;;;;;;;;;;;;;;5076370;28;1805;-40
2022/12/11 07:56:23;;;;;;;;;;;;;;;;;;5093638;28;1784;-40
2022/12/11 07:58:50;;;;;;;;;;;;;;;;;;5093297;28;1861;-40
2022/12/11 08:01:19;;;;;;;;;;;;;;;;;;5093061;28;1933;-40
2022/12/11 08:03:46;;;;;;;;;;;;;;;;;;5093296;28;2217;-40
2022/12/11 08:06:14;;;;;;;;;;;;;;;;;;5093106;28;1891;-40
2022/12/11 08:08:41;;;;;;;;;;;;;;;;;;5092918;28;1860;-40
2022/12/11 08:11:10;;;;;;;;;;;;;;;;;;5093028;28;2149;-41
2022/12/11 08:13:38;;;;;;;;;;;;;;;;;;5092359;28;1680;-40
2022/12/11 08:16:06;;;;;;;;;;;;;;;;;;5093006;28;1994;-40
2022/12/11 08:18:35;;;;;;;;;;;;;;;;;;5092875;28;1643;-40
2022/12/11 08:21:25;;;;;;;;;;;;;;;;;;5105728;28;1981;-39
2022/12/11 08:23:53;;;;;;;;;;;;;;;;;;5100877;28;2545;-40
2022/12/11 08:26:26;;;;;;;;;;;;;;;;;;5113131;28;2022;-40
2022/12/11 08:28:53;;;;;;;;;;;;;;;;;;5113421;28;1706;-40
2022/12/11 08:31:20;;;;;;;;;;;;;;;;;;5112973;28;2198;-40
2022/12/11 08:33:48;;;;;;;;;;;;;;;;;;5113128;28;1795;-39
2022/12/11 08:36:16;;;;;;;;;;;;;;;;;;5113022;28;1403;-39
2022/12/11 08:38:43;;;;;;;;;;;;;;;;;;5113003;28;1706;-40
2022/12/11 08:41:11;;;;;;;;;;;;;;;;;;5112809;28;1935;-40
2022/12/11 08:43:39;;;;;;;;;;;;;;;;;;5112936;28;2048;-41
2022/12/11 08:46:06;;;;;;;;;;;;;;;;;;5112802;28;2036;-40
2022/12/11 08:48:34;;;;;;;;;;;;;;;;;;5094831;28;1939;-40
2022/12/11 08:51:02;;;;;;;;;;;;;;;;;;5112809;28;2140;-40
2022/12/11 08:53:30;;;;;;;;;;;;;;;;;;5112938;28;1997;-40
2022/12/11 08:56:03;;;;;;;;;;;;;;;;;;5113015;28;1969;-40
2022/12/11 08:58:31;;;;;;;;;;;;;;;;;;5112502;28;1696;-40
2022/12/11 09:00:58;;;;;;;;;;;;;;;;;;5112573;28;1967;-40
2022/12/11 09:03:25;;;;;;;;;;;;;;;;;;5112634;28;2091;-40
2022/12/11 09:05:52;;;;;;;;;;;;;;;;;;5111823;28;2212;-40
2022/12/11 09:08:19;;;;;;;;;;;;;;;;;;5112437;28;1810;-40
2022/12/11 09:10:46;;;;;;;;;;;;;;;;;;5112938;28;1837;-41
2022/12/11 09:13:13;;;;;;;;;;;;;;;;;;5112064;28;1970;-40
2022/12/11 09:15:40;;;;;;;;;;;;;;;;;;5112464;28;1744;-40
2022/12/11 09:18:08;;;;;;;;;;;;;;;;;;5112277;28;1701;-40
2022/12/11 09:20:35;;;;;;;;;;;;;;;;;;5102648;28;2293;-39
2022/12/11 09:23:02;;;;;;;;;;;;;;;;;;5091696;28;1975;-41
2022/12/11 09:25:29;;;;;;;;;;;;;;;;;;5092321;28;2148;-40
2022/12/11 09:27:56;;;;;;;;;;;;;;;;;;5091691;28;1935;-40
2022/12/11 09:30:23;;;;;;;;;;;;;;;;;;5104301;28;1329;-41
2022/12/11 09:32:51;;;;;;;;;;;;;;;;;;5111918;28;1991;-39
2022/12/11 09:35:19;;;;;;;;;;;;;;;;;;5111915;28;1844;-41
2022/12/11 09:37:46;;;;;;;;;;;;;;;;;;5111911;28;2021;-42
2022/12/11 09:40:13;;;;;;;;;;;;;;;;;;5111618;28;1972;-41
2022/12/11 09:42:40;;;;;;;;;;;;;;;;;;5093873;28;1911;-41
2022/12/11 09:45:10;;;;;;;;;;;;;;;;;;5111753;28;1938;-40
2022/12/11 09:47:39;;;;;;;;;;;;;;;;;;5111610;28;1672;-40
2022/12/11 09:50:09;;;;;;;;;;;;;;;;;;5111599;28;2105;-41
2022/12/11 09:52:39;;;;;;;;;;;;;;;;;;5111470;28;1213;-41
2022/12/11 09:55:13;;;;;;;;;;;;;;;;;;5111720;28;2234;-40
2022/12/11 09:57:45;;;;;;;;;;;;;;;;;;5111795;28;1820;-40
2022/12/11 10:00:18;;;;;;;;;;;;;;;;;;5111692;28;1930;-41
2022/12/11 10:02:57;;;;;;;;;;;;;;;;;;5111300;28;2036;-40
2022/12/11 10:05:36;;;;;;;;;;;;;;;;;;5111267;28;1663;-40
2022/12/11 10:08:29;;;;;;;;;;;;;;;;;;5111788;28;1963;-41
2022/12/11 10:11:05;;;;;;;;;;;;;;;;;;5073147;28;1949;-40
2022/12/11 10:13:41;;;;;;;;;;;;;;;;;;5112012;28;1764;-41
2022/12/11 10:16:31;;;;;;;;;;;;;;;;;;5111567;28;1780;-39
2022/12/11 10:18:58;;;;;;;;;;;;;;;;;;5101696;28;1671;-40
2022/12/11 10:21:26;;;;;;;;;;;;;;;;;;5098951;28;1988;-40
2022/12/11 10:23:57;;;;;;;;;;;;;;;;;;5095267;28;1732;-40
2022/12/11 10:26:24;;;;;;;;;;;;;;;;;;5094999;28;1922;-42
2022/12/11 10:28:51;;;;;;;;;;;;;;;;;;5094975;28;1493;-40
2022/12/11 10:31:27;;;;;;;;;;;;;;;;;;5095161;28;1978;-40
2022/12/11 10:34:03;;;;;;;;;;;;;;;;;;5095045;28;2377;-40
2022/12/11 10:36:31;;;;;;;;;;;;;;;;;;5094672;28;1986;-40
2022/12/11 10:38:58;;;;;;;;;;;;;;;;;;5095029;28;1785;-40
2022/12/11 10:41:40;;;;;;;;;;;;;;;;;;5094856;28;1908;-41
2022/12/11 10:44:24;;;;;;;;;;;;;;;;;;5094977;28;1835;-40
2022/12/11 10:47:10;;;;;;;;;;;;;;;;;;5094295;28;1993;-41
2022/12/11 10:49:38;;;;;;;;;;;;;;;;;;5094972;28;1915;-40
2022/12/11 10:52:19;;;;;;;;;;;;;;;;;;5094958;28;1777;-41
2022/12/11 10:54:52;;;;;;;;;;;;;;;;;;5094626;28;1465;-40
2022/12/11 10:57:25;;;;;;;;;;;;;;;;;;5094227;28;1718;-41
2022/12/11 10:59:52;;;;;;;;;;;;;;;;;;5107530;28;2034;-40
2022/12/11 11:02:39;;;;;;;;;;;;;;;;;;5107352;28;1922;-40
2022/12/11 11:05:14;;;;;;;;;;;;;;;;;;5090082;28;2308;-41
2022/12/11 11:07:41;;;;;;;;;;;;;;;;;;5114459;28;1698;-40
2022/12/11 11:10:11;;;;;;;;;;;;;;;;;;5105410;28;1974;-40
2022/12/11 11:12:45;;;;;;;;;;;;;;;;;;5094400;28;1705;-40
2022/12/11 11:15:14;;;;;;;;;;;;;;;;;;5094115;28;1394;-39
2022/12/11 11:17:52;;;;;;;;;;;;;;;;;;5093977;28;1932;-40
2022/12/11 11:20:23;;;;;;;;;;;;;;;;;;5101395;28;2135;-40
2022/12/11 11:22:52;;;;;;;;;;;;;;;;;;5114359;28;1750;-40
2022/12/11 11:25:23;;;;;;;;;;;;;;;;;;5114858;28;1971;-40
2022/12/11 11:27:55;;;;;;;;;;;;;;;;;;5114468;28;2178;-40
2022/12/11 11:30:24;;;;;;;;;;;;;;;;;;5114300;28;1952;-40
2022/12/11 11:32:54;;;;;;;;;;;;;;;;;;5096088;28;2156;-39
2022/12/11 11:35:22;;;;;;;;;;;;;;;;;;5104954;28;1263;-40
2022/12/11 11:37:55;;;;;;;;;;;;;;;;;;5111580;28;1861;-39
2022/12/11 11:40:27;;;;;;;;;;;;;;;;;;5114162;28;1904;-40
2022/12/11 11:42:57;;;;;;;;;;;;;;;;;;5113961;28;1802;-39
2022/12/11 11:45:27;;;;;;;;;;;;;;;;;;5114088;28;2084;-40
2022/12/11 11:48:09;;;;;;;;;;;;;;;;;;5096081;28;1672;-40
2022/12/11 11:50:40;;;;;;;;;;;;;;;;;;5114080;28;1821;-40
2022/12/11 11:53:18;;;;;;;;;;;;;;;;;;5113967;28;1697;-41
2022/12/11 11:55:54;;;;;;;;;;;;;;;;;;5095496;28;1998;-40
2022/12/11 11:58:24;;;;;;;;;;;;;;;;;;5113702;28;1496;-41
2022/12/11 12:00:53;;;;;;;;;;;;;;;;;;5113384;28;1989;-48
2022/12/11 12:03:22;;;;;;;;;;;;;;;;;;5113751;28;1702;-39
2022/12/11 12:05:54;;;;;;;;;;;;;;;;;;5113448;28;1802;-41
2022/12/11 12:08:21;;;;;;;;;;;;;;;;;;5113527;28;1293;-40
2022/12/11 12:10:54;;;;;;;;;;;;;;;;;;5113617;28;1863;-40
2022/12/11 12:13:27;;;;;;;;;;;;;;;;;;5113582;28;1950;-40
2022/12/11 12:16:34;;;;;;;;;;;;;;;;;;5113268;28;1638;-40
2022/12/11 12:19:22;;;;;;;;;;;;;;;;;;5113554;28;1721;-40
2022/12/11 12:21:51;;;;;;;;;;;;;;;;;;5093123;28;1919;-40
2022/12/11 12:24:29;;;;;;;;;;;;;;;;;;5092541;28;1544;-39
2022/12/11 12:27:01;;;;;;;;;;;;;;;;;;5074894;28;1415;-39
2022/12/11 12:29:46;;;;;;;;;;;;;;;;;;5093009;28;1886;-40
2022/12/11 12:32:13;;;;;;;;;;;;;;;;;;5092745;28;1832;-40
2022/12/11 12:34:53;;;;;;;;;;;;;;;;;;5092780;28;1647;-41
2022/12/11 12:37:25;;;;;;;;;;;;;;;;;;5091437;28;2107;-40
2022/12/11 12:39:52;;;;;;;;;;;;;;;;;;5091922;28;1843;-40
2022/12/11 12:42:37;;;;;;;;;;;;;;;;;;5092280;28;1910;-41
2022/12/11 12:45:25;;;;;;;;;;;;;;;;;;5091835;28;1568;-40
2022/12/11 12:47:52;;;;;;;;;;;;;;;;;;5092333;28;1842;-40
2022/12/11 12:50:21;;;;;;;;;;;;;;;;;;5092512;28;1680;-40
2022/12/11 12:52:50;;;;;;;;;;;;;;;;;;5092260;28;1322;-40
2022/12/11 12:55:19;;;;;;;;;;;;;;;;;;5092048;28;1705;-41
2022/12/11 12:57:55;;;;;;;;;;;;;;;;;;5092377;28;1475;-41
2022/12/11 13:00:25;;;;;;;;;;;;;;;;;;5092012;28;2019;-39
2022/12/11 13:02:54;;;;;;;;;;;;;;;;;;5092153;28;2295;-40
2022/12/11 13:05:29;;;;;;;;;;;;;;;;;;5091841;28;2213;-39
2022/12/11 13:07:59;;;;;;;;;;;;;;;;;;5092113;28;1685;-39
2022/12/11 13:10:36;;;;;;;;;;;;;;;;;;5092250;28;1711;-41
2022/12/11 13:13:04;;;;;;;;;;;;;;;;;;5091982;28;2386;-39
2022/12/11 13:15:43;;;;;;;;;;;;;;;;;;5092027;28;1365;-40
2022/12/11 13:18:31;;;;;;;;;;;;;;;;;;5091762;28;1852;-39
2022/12/11 13:20:58;;;;;;;;;;;;;;;;;;5091631;28;1937;-40
2022/12/11 13:23:27;;;;;;;;;;;;;;;;;;5091649;28;1278;-40
2022/12/11 13:25:56;;;;;;;;;;;;;;;;;;5091644;28;1376;-39
2022/12/11 13:28:25;;;;;;;;;;;;;;;;;;5091689;28;1655;-39
2022/12/11 13:30:59;;;;;;;;;;;;;;;;;;5091779;28;1748;-40
2022/12/11 13:33:28;;;;;;;;;;;;;;;;;;5091611;28;1980;-40
2022/12/11 13:36:16;;;;;;;;;;;;;;;;;;5091685;28;2258;-39
2022/12/11 13:38:50;;;;;;;;;;;;;;;;;;5105020;28;2133;-41
2022/12/11 13:41:21;;;;;;;;;;;;;;;;;;5094236;28;1910;-40
2022/12/11 13:43:49;;;;;;;;;;;;;;;;;;5111991;28;2135;-40
2022/12/11 13:46:19;;;;;;;;;;;;;;;;;;5093421;28;1464;-40
2022/12/11 13:48:59;;;;;;;;;;;;;;;;;;5112109;28;1925;-40
2022/12/11 13:51:32;;;;;;;;;;;;;;;;;;5111536;28;2102;-39
2022/12/11 13:54:16;;;;;;;;;;;;;;;;;;5111444;28;1588;-40
2022/12/11 13:56:55;;;;;;;;;;;;;;;;;;5111614;28;1903;-40
2022/12/11 13:59:24;;;;;;;;;;;;;;;;;;5111789;28;1813;-40
2022/12/11 14:01:53;;;;;;;;;;;;;;;;;;5108583;28;2129;-40
2022/12/11 14:04:20;;;;;;;;;;;;;;;;;;5090859;28;1638;-40
2022/12/11 14:06:48;;;;;;;;;;;;;;;;;;5091083;28;1768;-40
2022/12/11 14:09:17;;;;;;;;;;;;;;;;;;5091314;28;1992;-41
2022/12/11 14:11:45;;;;;;;;;;;;;;;;;;5091159;28;1513;-40
2022/12/11 14:14:23;;;;;;;;;;;;;;;;;;5091094;28;1895;-40
2022/12/11 14:16:50;;;;;;;;;;;;;;;;;;5091215;28;1588;-41
2022/12/11 14:19:19;;;;;;;;;;;;;;;;;;5091184;28;1265;-40
2022/12/11 14:22:03;;;;;;;;;;;;;;;;;;5090997;28;1973;-41
2022/12/11 14:24:30;;;;;;;;;;;;;;;;;;5091118;28;1939;-40
2022/12/11 14:26:58;;;;;;;;;;;;;;;;;;5091105;28;2021;-38
2022/12/11 14:29:26;;;;;;;;;;;;;;;;;;5091127;28;1696;-39
2022/12/11 14:31:53;;;;;;;;;;;;;;;;;;5090974;28;1860;-40
2022/12/11 14:34:35;;;;;;;;;;;;;;;;;;5091228;28;1777;-39
2022/12/11 14:37:05;;;;;;;;;;;;;;;;;;5091013;28;1607;-40
2022/12/11 14:39:35;;;;;;;;;;;;;;;;;;5091006;28;1844;-39
2022/12/11 14:42:08;;;;;;;;;;;;;;;;;;5090936;28;1914;-40
2022/12/11 14:44:42;;;;;;;;;;;;;;;;;;5090853;28;1710;-40
2022/12/11 14:47:15;;;;;;;;;;;;;;;;;;5090887;28;1491;-40
2022/12/11 14:49:51;;;;;;;;;;;;;;;;;;5090681;28;1990;-40
2022/12/11 14:52:20;;;;;;;;;;;;;;;;;;5090926;28;1946;-40
2022/12/11 14:54:53;;;;;;;;;;;;;;;;;;5090780;28;2154;-40
2022/12/11 14:57:21;;;;;;;;;;;;;;;;;;5091117;28;1214;-40
2022/12/11 14:59:50;;;;;;;;;;;;;;;;;;5090874;28;1377;-40
2022/12/11 15:02:22;;;;;;;;;;;;;;;;;;5091001;28;1887;-40
2022/12/11 15:04:58;;;;;;;;;;;;;;;;;;5093275;28;1705;-42
2022/12/11 15:07:26;;;;;;;;;;;;;;;;;;5075975;28;1458;-39
2022/12/11 15:09:57;;;;;;;;;;;;;;;;;;5097212;28;1708;-39
2022/12/11 15:12:33;;;;;;;;;;;;;;;;;;5094298;28;1788;-38
2022/12/11 15:15:05;;;;;;;;;;;;;;;;;;5094121;28;2342;-39
2022/12/11 15:17:36;;;;;;;;;;;;;;;;;;5094193;28;1251;-39
2022/12/11 15:20:10;;;;;;;;;;;;;;;;;;5098488;28;1922;-40
2022/12/11 15:22:41;;;;;;;;;;;;;;;;;;5114352;28;2001;-39
2022/12/11 15:25:16;;;;;;;;;;;;;;;;;;5114350;28;1998;-41
2022/12/11 15:27:43;;;;;;;;;;;;;;;;;;5114283;28;1694;-40
2022/12/11 15:30:16;;;;;;;;;;;;;;;;;;5113931;28;1598;-39
2022/12/11 15:32:43;;;;;;;;;;;;;;;;;;5098931;28;1956;-39
2022/12/11 15:35:24;;;;;;;;;;;;;;;;;;5093989;28;1386;-39
2022/12/11 15:37:52;;;;;;;;;;;;;;;;;;5093997;28;1570;-40
2022/12/11 15:40:20;;;;;;;;;;;;;;;;;;5093603;28;1396;-39
2022/12/11 15:42:48;;;;;;;;;;;;;;;;;;5093192;28;2068;-40
2022/12/11 15:45:16;;;;;;;;;;;;;;;;;;5093740;28;1678;-39
2022/12/11 15:47:50;;;;;;;;;;;;;;;;;;5093485;28;1468;-39
2022/12/11 15:50:22;;;;;;;;;;;;;;;;;;5093437;28;2079;-39
2022/12/11 15:52:50;;;;;;;;;;;;;;;;;;5093202;28;1777;-39
2022/12/11 15:55:17;;;;;;;;;;;;;;;;;;5093128;28;1671;-40
2022/12/11 15:57:55;;;;;;;;;;;;;;;;;;5093305;28;1933;-40
2022/12/11 16:00:23;;;;;;;;;;;;;;;;;;5093481;28;2299;-39
2022/12/11 16:02:50;;;;;;;;;;;;;;;;;;5093154;28;1990;-39
2022/12/11 16:05:18;;;;;;;;;;;;;;;;;;5092887;28;1708;-38
2022/12/11 16:07:45;;;;;;;;;;;;;;;;;;5093168;28;1652;-39
2022/12/11 16:10:16;;;;;;;;;;;;;;;;;;5092914;28;1775;-39
2022/12/11 16:12:43;;;;;;;;;;;;;;;;;;5092751;28;1314;-39
2022/12/11 16:15:12;;;;;;;;;;;;;;;;;;5092818;28;1854;-39
2022/12/11 16:17:43;;;;;;;;;;;;;;;;;;5092783;28;1813;-39
2022/12/11 16:20:11;;;;;;;;;;;;;;;;;;5092142;28;1618;-40
2022/12/11 16:22:39;;;;;;;;;;;;;;;;;;5092683;28;1914;-39
2022/12/11 16:25:06;;;;;;;;;;;;;;;;;;5093233;28;1601;-39
2022/12/11 16:27:33;;;;;;;;;;;;;;;;;;5094270;28;1261;-39
2022/12/11 16:30:00;;;;;;;;;;;;;;;;;;5092678;28;1785;-39
2022/12/11 16:32:27;;;;;;;;;;;;;;;;;;5092948;28;1664;-40
2022/12/11 16:34:56;;;;;;;;;;;;;;;;;;5092782;28;1923;-39
2022/12/11 16:37:24;;;;;;;;;;;;;;;;;;5092772;28;1717;-39
2022/12/11 16:39:50;;;;;;;;;;;;;;;;;;5092468;28;1806;-38
2022/12/11 16:42:18;;;;;;;;;;;;;;;;;;5092372;28;1911;-40
2022/12/11 16:44:45;;;;;;;;;;;;;;;;;;5074414;28;2143;-39
2022/12/11 16:47:12;;;;;;;;;;;;;;;;;;5074260;28;1733;-39
2022/12/11 16:49:41;;;;;;;;;;;;;;;;;;5092267;28;2233;-39
2022/12/11 16:52:08;;;;;;;;;;;;;;;;;;5092416;28;1881;-39
2022/12/11 16:54:35;;;;;;;;;;;;;;;;;;5092307;28;1336;-40
2022/12/11 16:57:02;;;;;;;;;;;;;;;;;;5092315;28;1983;-39
2022/12/11 16:59:29;;;;;;;;;;;;;;;;;;5092475;28;1650;-38
2022/12/11 17:02:02;;;;;;;;;;;;;;;;;;5091645;28;1915;-39
2022/12/11 17:04:29;;;;;;;;;;;;;;;;;;5092279;28;1988;-39
2022/12/11 17:06:56;;;;;;;;;;;;;;;;;;5092136;28;1726;-39
2022/12/11 17:09:23;;;;;;;;;;;;;;;;;;5092010;28;1889;-39
2022/12/11 17:11:52;;;;;;;;;;;;;;;;;;5091634;28;1422;-39
2022/12/11 17:14:19;;;;;;;;;;;;;;;;;;5091861;28;1718;-40
2022/12/11 17:16:47;;;;;;;;;;;;;;;;;;5091852;28;1412;-38
2022/12/11 17:19:14;;;;;;;;;;;;;;;;;;5091785;28;1255;-39
2022/12/11 17:21:42;;;;;;;;;;;;;;;;;;5110253;28;2186;-39
2022/12/11 17:24:40;;;;;;;;;;;;;;;;;;5112205;28;1849;-38
2022/12/11 17:27:30;;;;;;;;;;;;;;;;;;5111397;28;1578;-39
2022/12/11 17:30:24;;;;;;;;;;;;;;;;;;5111636;28;1923;-39
2022/12/11 17:33:43;;;;;;;;;;;;;;;;;;5111785;28;1766;-39
2022/12/11 17:37:05;;;;;;;;;;;;;;;;;;5111716;28;1775;-39